Time;durP1;ratioP1;P1;durP2;ratioP2;P2;SDS_P1;SDS_P2;PMS_P1;PMS_P2;Temp;Humidity;BMP_temperature;BMP_pressure;BME280_temperature;BME280_humidity;BME280_pressure;Samples;Min_cycle;Max_cycle;Signal;HPM_P1;HPM_P2
2022/05/23 00:00:52;;;;;;;6.35;3.28;;;;;;;;;;5112346;28;20051;-67
2022/05/23 00:03:24;;;;;;;7.38;3.63;;;;;;;;;;5111504;28;20051;-67
2022/05/23 00:05:55;;;;;;;8.05;3.50;;;;;;;;;;5061201;28;20051;-67
2022/05/23 00:08:28;;;;;;;8.80;3.47;;;;;;;;;;5094926;28;20518;-67
2022/05/23 00:10:59;;;;;;;5.90;3.08;;;;;;;;;;5078192;28;20079;-67
2022/05/23 00:13:30;;;;;;;10.85;3.42;;;;;;;;;;5070403;28;20551;-67
2022/05/23 00:16:00;;;;;;;7.38;3.00;;;;;;;;;;5070740;28;20068;-67
2022/05/23 00:18:33;;;;;;;6.72;3.30;;;;;;;;;;5070791;28;20064;-67
2022/05/23 00:21:04;;;;;;;7.22;3.55;;;;;;;;;;5070699;28;20056;-67
2022/05/23 00:23:34;;;;;;;6.63;3.58;;;;;;;;;;5070448;28;20515;-67
2022/05/23 00:26:05;;;;;;;8.38;3.30;;;;;;;;;;5070551;28;20056;-67
2022/05/23 00:28:35;;;;;;;7.45;3.10;;;;;;;;;;5030483;28;20053;-67
2022/05/23 00:31:07;;;;;;;6.25;3.10;;;;;;;;;;4997717;28;20060;-67
2022/05/23 00:36:29;;;;;;;8.05;3.58;;;;;;;;;;4948651;28;20081;-67
2022/05/23 00:39:00;;;;;;;7.25;3.45;;;;;;;;;;5010280;28;20062;-67
2022/05/23 00:44:36;;;;;;;6.90;3.42;;;;;;;;;;4990854;28;20118;-67
2022/05/23 00:47:22;;;;;;;7.20;3.08;;;;;;;;;;4958476;28;20051;-67
2022/05/23 00:49:53;;;;;;;9.40;3.97;;;;;;;;;;4974984;28;20062;-67
2022/05/23 00:52:29;;;;;;;6.68;3.72;;;;;;;;;;4990695;28;20066;-67
2022/05/23 00:55:05;;;;;;;8.77;3.75;;;;;;;;;;4951760;29;20055;-67
2022/05/23 00:57:40;;;;;;;7.93;3.65;;;;;;;;;;4951605;29;20055;-67
2022/05/23 01:00:14;;;;;;;7.45;3.85;;;;;;;;;;4951740;29;20052;-67
2022/05/23 01:02:53;;;;;;;11.20;3.83;;;;;;;;;;4951828;29;20898;-67
2022/05/23 01:05:24;;;;;;;11.93;3.83;;;;;;;;;;4954988;28;20059;-67
2022/05/23 01:07:55;;;;;;;8.68;4.28;;;;;;;;;;4938587;28;20471;-67
2022/05/23 01:10:26;;;;;;;11.27;4.32;;;;;;;;;;4971163;28;20066;-67
2022/05/23 01:12:57;;;;;;;9.30;3.67;;;;;;;;;;4951366;28;20055;-67
2022/05/23 01:15:30;;;;;;;12.48;3.53;;;;;;;;;;4951750;29;20051;-67
2022/05/23 01:18:03;;;;;;;9.98;4.00;;;;;;;;;;4932298;29;20389;-67
2022/05/23 01:20:34;;;;;;;9.70;3.60;;;;;;;;;;4927599;29;20078;-67
2022/05/23 01:23:09;;;;;;;8.15;3.78;;;;;;;;;;4932133;29;20052;-67
2022/05/23 01:26:04;;;;;;;12.88;4.00;;;;;;;;;;4919752;29;20526;-67
2022/05/23 01:28:43;;;;;;;7.70;3.80;;;;;;;;;;4894059;29;20056;-67
2022/05/23 01:31:31;;;;;;;9.60;4.10;;;;;;;;;;4837736;29;20062;-67
2022/05/23 01:34:11;;;;;;;10.98;4.65;;;;;;;;;;4835082;29;20065;-67
2022/05/23 01:36:52;;;;;;;8.32;3.40;;;;;;;;;;4838192;29;20054;-67
2022/05/23 01:39:24;;;;;;;9.50;4.45;;;;;;;;;;4838256;29;20057;-67
2022/05/23 01:41:55;;;;;;;9.02;4.25;;;;;;;;;;4856801;29;20061;-67
2022/05/23 01:44:28;;;;;;;10.27;4.10;;;;;;;;;;4871789;29;20384;-67
2022/05/23 01:47:09;;;;;;;13.35;4.97;;;;;;;;;;4838256;29;20057;-67
2022/05/23 01:49:57;;;;;;;12.93;4.95;;;;;;;;;;4838352;29;20531;-67
2022/05/23 01:52:40;;;;;;;8.13;4.63;;;;;;;;;;4826064;29;20062;-67
2022/05/23 01:55:14;;;;;;;10.02;5.18;;;;;;;;;;4866033;29;20654;-67
2022/05/23 01:58:11;;;;;;;11.70;4.90;;;;;;;;;;4824025;29;20050;-67
2022/05/23 02:03:39;;;;;;;11.00;5.22;;;;;;;;;;4842149;29;20058;-67
2022/05/23 02:06:10;;;;;;;11.55;4.32;;;;;;;;;;4833512;29;20050;-67
2022/05/23 02:08:42;;;;;;;14.43;4.70;;;;;;;;;;4836479;29;20496;-67
2022/05/23 02:11:12;;;;;;;11.20;4.30;;;;;;;;;;4823538;29;20474;-67
2022/05/23 02:13:45;;;;;;;9.45;4.53;;;;;;;;;;4826627;29;20628;-67
2022/05/23 02:16:27;;;;;;;12.45;4.60;;;;;;;;;;4873162;29;20064;-68
2022/05/23 02:19:02;;;;;;;12.40;4.55;;;;;;;;;;4848262;29;20045;-67
2022/05/23 02:21:32;;;;;;;13.23;4.82;;;;;;;;;;4883488;29;20048;-67
2022/05/23 02:24:04;;;;;;;11.00;4.85;;;;;;;;;;4853709;29;20442;-67
2022/05/23 02:26:35;;;;;;;9.90;5.20;;;;;;;;;;4878599;29;20054;-67
2022/05/23 02:29:27;;;;;;;14.45;5.65;;;;;;;;;;4872397;29;20418;-67
2022/05/23 02:31:58;;;;;;;11.70;5.38;;;;;;;;;;4875476;29;20418;-67
2022/05/23 02:34:31;;;;;;;9.77;4.90;;;;;;;;;;4875016;29;20053;-67
2022/05/23 02:37:03;;;;;;;15.18;5.72;;;;;;;;;;4859975;29;20057;-67
2022/05/23 02:39:56;;;;;;;11.88;5.40;;;;;;;;;;4872149;29;20060;-67
2022/05/23 02:42:29;;;;;;;11.60;5.45;;;;;;;;;;4897203;29;20060;-67
2022/05/23 02:45:06;;;;;;;14.90;4.90;;;;;;;;;;4915620;29;20505;-67
2022/05/23 02:47:43;;;;;;;11.60;4.63;;;;;;;;;;4915735;29;20437;-67
2022/05/23 02:50:14;;;;;;;10.98;4.88;;;;;;;;;;4915987;29;20060;-67
2022/05/23 02:52:47;;;;;;;9.32;4.38;;;;;;;;;;4900585;29;20405;-67
2022/05/23 02:55:38;;;;;;;10.68;4.75;;;;;;;;;;4889994;29;20048;-67
2022/05/23 02:58:10;;;;;;;11.68;4.50;;;;;;;;;;4909006;29;20053;-67
2022/05/23 03:00:41;;;;;;;10.00;5.00;;;;;;;;;;4877936;29;20053;-67
2022/05/23 03:03:11;;;;;;;8.77;4.00;;;;;;;;;;4888520;29;20544;-67
2022/05/23 03:05:53;;;;;;;9.93;4.45;;;;;;;;;;4914955;29;20056;-67
2022/05/23 03:08:25;;;;;;;9.48;4.72;;;;;;;;;;4915460;29;20410;-67
2022/05/23 03:11:00;;;;;;;11.93;4.75;;;;;;;;;;4907071;29;20064;-67
2022/05/23 03:13:31;;;;;;;10.95;4.40;;;;;;;;;;4896729;29;20052;-67
2022/05/23 03:16:07;;;;;;;8.85;4.55;;;;;;;;;;4895144;29;20083;-67
2022/05/23 03:18:41;;;;;;;13.93;5.07;;;;;;;;;;4911595;29;20057;-67
2022/05/23 03:26:58;;;;;;;9.13;4.28;;;;;;;;;;4915866;28;20048;-67
2022/05/23 03:26:59;;;;;;;10.98;4.72;;;;;;;;;;4915583;29;20056;-67
2022/05/23 03:29:40;;;;;;;11.38;4.45;;;;;;;;;;4915092;29;20056;-67
2022/05/23 03:32:11;;;;;;;9.30;4.60;;;;;;;;;;4915274;29;20060;-67
2022/05/23 03:34:41;;;;;;;10.68;4.85;;;;;;;;;;4896637;29;20045;-67
2022/05/23 03:37:21;;;;;;;11.88;5.10;;;;;;;;;;4898674;29;20060;-67
2022/05/23 03:39:52;;;;;;;10.50;4.63;;;;;;;;;;4914428;29;20051;-67
2022/05/23 03:42:22;;;;;;;10.63;4.85;;;;;;;;;;4933718;29;20385;-67
2022/05/23 03:44:58;;;;;;;11.30;5.30;;;;;;;;;;4936644;29;20520;-67
2022/05/23 03:47:38;;;;;;;12.50;5.57;;;;;;;;;;4892416;29;20052;-67
2022/05/23 03:50:15;;;;;;;10.00;5.35;;;;;;;;;;4858830;29;20063;-68
2022/05/23 03:52:46;;;;;;;11.75;5.70;;;;;;;;;;4895831;29;20053;-68
2022/05/23 03:55:24;;;;;;;11.60;5.10;;;;;;;;;;4875237;29;20098;-68
2022/05/23 03:58:10;;;;;;;11.95;4.75;;;;;;;;;;4891308;29;20049;-67
2022/05/23 04:00:43;;;;;;;11.48;5.28;;;;;;;;;;4877295;29;20064;-67
2022/05/23 04:03:15;;;;;;;;;;;;;;;;;;4893124;29;20045;-67
2022/05/23 04:05:47;;;;;;;8.15;4.43;;;;;;;;;;4877190;29;19931;-67
2022/05/23 04:08:28;;;;;;;10.65;4.70;;;;;;;;;;4841369;29;20054;-67
2022/05/23 04:11:03;;;;;;;10.52;5.07;;;;;;;;;;4858205;29;20418;-67
2022/05/23 04:13:36;;;;;;;12.88;5.03;;;;;;;;;;4840154;29;20053;-68
2022/05/23 04:16:07;;;;;;;11.23;5.15;;;;;;;;;;4839601;29;20641;-67
2022/05/23 04:18:39;;;;;;;10.00;5.00;;;;;;;;;;4822529;29;20524;-67
2022/05/23 04:21:10;;;;;;;11.43;5.15;;;;;;;;;;4821956;29;20062;-67
2022/05/23 04:23:44;;;;;;;12.27;5.15;;;;;;;;;;4854220;29;20058;-67
2022/05/23 04:26:15;;;;;;;12.05;4.57;;;;;;;;;;4891662;29;20055;-67
2022/05/23 04:28:46;;;;;;;8.82;4.45;;;;;;;;;;4914408;29;20052;-67
2022/05/23 04:31:18;;;;;;;10.52;5.05;;;;;;;;;;4946830;29;20082;-67
2022/05/23 04:37:04;;;;;;;13.10;4.90;;;;;;;;;;4951800;29;20081;-67
2022/05/23 04:39:44;;;;;;;11.77;5.18;;;;;;;;;;4971236;28;20050;-67
2022/05/23 04:42:15;;;;;;;11.60;5.40;;;;;;;;;;4990378;28;20058;-67
2022/05/23 04:44:46;;;;;;;9.82;4.65;;;;;;;;;;4990756;28;20062;-67
2022/05/23 04:50:13;;;;;;;11.75;4.85;;;;;;;;;;4904437;29;20075;-67
2022/05/23 04:52:47;;;;;;;10.73;5.05;;;;;;;;;;4952001;29;20546;-67
2022/05/23 04:55:19;;;;;;;13.68;5.05;;;;;;;;;;4920137;29;20054;-67
2022/05/23 04:57:52;;;;;;;10.02;4.32;;;;;;;;;;4951957;29;20412;-67
2022/05/23 05:00:23;;;;;;;8.98;4.32;;;;;;;;;;4914922;29;20198;-67
2022/05/23 05:02:59;;;;;;;10.85;4.40;;;;;;;;;;4949540;29;20051;-67
2022/05/23 05:05:45;;;;;;;10.40;4.28;;;;;;;;;;4891585;29;20059;-67
2022/05/23 05:08:16;;;;;;;11.05;5.10;;;;;;;;;;4894602;29;20064;-68
2022/05/23 05:10:50;;;;;;;10.98;4.93;;;;;;;;;;4875934;29;20056;-67
2022/05/23 05:13:20;;;;;;;10.20;5.15;;;;;;;;;;4886899;29;20056;-67
2022/05/23 05:15:52;;;;;;;10.82;5.55;;;;;;;;;;4894222;29;20056;-67
2022/05/23 05:18:27;;;;;;;9.38;4.57;;;;;;;;;;4894421;29;20406;-67
2022/05/23 05:21:18;;;;;;;9.27;4.05;;;;;;;;;;4850229;29;20057;-67
2022/05/23 05:24:07;;;;;;;9.25;4.35;;;;;;;;;;4876082;29;20064;-67
2022/05/23 05:26:43;;;;;;;9.32;3.97;;;;;;;;;;4908668;29;20049;-67
2022/05/23 05:29:14;;;;;;;9.00;4.25;;;;;;;;;;4894580;29;20533;-67
2022/05/23 05:32:11;;;;;;;8.40;4.07;;;;;;;;;;4909775;29;20398;-67
2022/05/23 05:34:48;;;;;;;10.73;4.35;;;;;;;;;;4894104;29;20064;-67
2022/05/23 05:37:25;;;;;;;9.10;4.25;;;;;;;;;;4893737;29;20064;-67
2022/05/23 05:39:59;;;;;;;;;;;;;;;;;;4890602;29;20142;-67
2022/05/23 05:42:34;;;;;;;12.43;4.80;;;;;;;;;;4875784;29;19924;-67
2022/05/23 05:45:13;;;;;;;8.77;4.65;;;;;;;;;;4875371;29;20057;-67
2022/05/23 05:47:49;;;;;;;9.90;5.03;;;;;;;;;;4871925;29;20101;-67
2022/05/23 05:50:42;;;;;;;10.13;5.05;;;;;;;;;;4875120;29;20057;-67
2022/05/23 05:53:24;;;;;;;13.23;5.32;;;;;;;;;;4898204;29;20052;-67
2022/05/23 05:56:01;;;;;;;10.70;4.78;;;;;;;;;;4894055;29;20056;-67
2022/05/23 05:58:32;;;;;;;8.98;4.50;;;;;;;;;;4888957;29;20056;-67
2022/05/23 06:01:04;;;;;;;9.55;4.28;;;;;;;;;;4894255;29;20068;-67
2022/05/23 06:03:35;;;;;;;11.35;4.10;;;;;;;;;;4912647;29;20066;-67
2022/05/23 06:12:01;;;;;;;9.65;3.90;;;;;;;;;;4931503;29;19922;-67
2022/05/23 06:14:37;;;;;;;9.98;4.68;;;;;;;;;;4901399;29;20056;-67
2022/05/23 06:17:10;;;;;;;9.40;4.05;;;;;;;;;;4912529;29;20044;-67
2022/05/23 06:19:47;;;;;;;9.77;4.45;;;;;;;;;;4913560;29;20067;-67
2022/05/23 06:22:23;;;;;;;8.95;4.47;;;;;;;;;;4931620;29;20071;-67
2022/05/23 06:25:04;;;;;;;8.65;4.05;;;;;;;;;;4874862;29;20056;-67
2022/05/23 06:27:36;;;;;;;8.50;3.92;;;;;;;;;;4856294;29;20066;-67
2022/05/23 06:30:14;;;;;;;7.90;3.92;;;;;;;;;;4875144;29;20413;-67
2022/05/23 06:32:45;;;;;;;9.23;4.32;;;;;;;;;;4875546;29;20076;-67
2022/05/23 06:35:21;;;;;;;9.15;3.95;;;;;;;;;;4860007;29;20049;-67
2022/05/23 06:37:54;;;;;;;7.93;3.70;;;;;;;;;;4887966;29;20060;-67
2022/05/23 06:40:43;;;;;;;8.68;3.90;;;;;;;;;;4886931;29;20442;-67
2022/05/23 06:43:34;;;;;;;7.55;3.67;;;;;;;;;;4847676;29;20057;-67
2022/05/23 06:46:22;;;;;;;8.52;3.67;;;;;;;;;;4871876;29;20052;-67
2022/05/23 06:49:02;;;;;;;6.60;3.42;;;;;;;;;;4901438;29;20056;-67
2022/05/23 06:52:03;;;;;;;7.70;3.38;;;;;;;;;;4916138;29;20052;-67
2022/05/23 06:54:56;;;;;;;7.85;3.63;;;;;;;;;;4927014;29;20519;-67
2022/05/23 06:57:43;;;;;;;5.97;3.03;;;;;;;;;;4910122;29;20064;-67
2022/05/23 07:00:17;;;;;;;11.73;4.43;;;;;;;;;;4882321;29;20497;-67
2022/05/23 07:02:59;;;;;;;8.73;4.45;;;;;;;;;;4896639;29;20045;-67
2022/05/23 07:14:08;;;;;;;7.53;3.95;;;;;;;;;;4896705;29;20053;-67
2022/05/23 07:16:40;;;;;;;7.03;3.47;;;;;;;;;;4933322;29;20063;-67
2022/05/23 07:19:11;;;;;;;8.88;3.60;;;;;;;;;;4934561;29;20044;-67
2022/05/23 07:22:07;;;;;;;7.00;3.35;;;;;;;;;;4915695;29;20052;-67
2022/05/23 07:24:44;;;;;;;9.52;4.13;;;;;;;;;;4915297;29;20056;-67
2022/05/23 07:27:26;;;;;;;8.85;3.47;;;;;;;;;;4915060;29;20048;-67
2022/05/23 07:29:58;;;;;;;9.05;3.55;;;;;;;;;;4896155;29;20052;-67
2022/05/23 07:32:32;;;;;;;9.00;3.33;;;;;;;;;;4890870;29;20055;-67
2022/05/23 07:35:03;;;;;;;8.95;3.80;;;;;;;;;;4918727;29;20059;-67
2022/05/23 07:37:34;;;;;;;6.85;3.45;;;;;;;;;;4934070;29;20055;-67
2022/05/23 07:40:06;;;;;;;7.38;3.20;;;;;;;;;;4891038;29;20053;-67
2022/05/23 07:42:46;;;;;;;8.25;3.22;;;;;;;;;;4877556;29;20061;-67
2022/05/23 07:45:17;;;;;;;6.93;3.58;;;;;;;;;;4908675;29;20063;-67
2022/05/23 07:47:51;;;;;;;8.10;3.80;;;;;;;;;;4895883;29;20060;-67
2022/05/23 07:50:38;;;;;;;6.00;3.15;;;;;;;;;;4877127;29;20053;-67
2022/05/23 08:01:54;;;;;;;5.95;3.13;;;;;;;;;;4858378;29;20177;-67
2022/05/23 08:04:25;;;;;;;9.48;4.32;;;;;;;;;;4859769;29;20068;-67
2022/05/23 08:07:00;;;;;;;7.95;3.75;;;;;;;;;;4842971;29;20049;-67
2022/05/23 08:09:31;;;;;;;8.07;3.92;;;;;;;;;;4873863;29;20065;-67
2022/05/23 08:12:06;;;;;;;7.85;3.92;;;;;;;;;;4858248;29;20764;-67
2022/05/23 08:14:38;;;;;;;8.35;3.35;;;;;;;;;;4867149;29;20057;-67
2022/05/23 08:17:18;;;;;;;5.90;3.10;;;;;;;;;;4899577;29;20061;-67
2022/05/23 08:19:49;;;;;;;7.55;3.42;;;;;;;;;;4858271;29;20064;-67
2022/05/23 08:22:26;;;;;;;8.32;3.33;;;;;;;;;;4904291;29;20064;-67
2022/05/23 08:25:08;;;;;;;8.30;3.40;;;;;;;;;;4902605;29;20053;-67
2022/05/23 08:27:46;;;;;;;7.45;3.28;;;;;;;;;;4876778;29;20053;-67
2022/05/23 08:30:17;;;;;;;6.53;3.33;;;;;;;;;;4890720;29;20063;-67
2022/05/23 08:32:50;;;;;;;7.53;2.88;;;;;;;;;;4908209;29;20064;-67
2022/05/23 08:35:23;;;;;;;7.80;4.10;;;;;;;;;;4913664;29;20428;-67
2022/05/23 08:38:01;;;;;;;11.43;3.80;;;;;;;;;;4928361;29;20060;-67
2022/05/23 08:40:52;;;;;;;6.63;3.20;;;;;;;;;;4894641;29;20053;-67
2022/05/23 08:43:47;;;;;;;7.15;3.25;;;;;;;;;;4876330;29;20060;-67
2022/05/23 08:46:32;;;;;;;8.18;3.53;;;;;;;;;;4857786;29;20058;-67
2022/05/23 08:49:18;;;;;;;6.80;3.17;;;;;;;;;;4854039;29;20058;-67
2022/05/23 08:52:22;;;;;;;6.45;3.33;;;;;;;;;;4876130;29;20139;-67
2022/05/23 08:55:18;;;;;;;7.85;3.33;;;;;;;;;;4817379;29;20051;-67
2022/05/23 08:58:12;;;;;;;6.75;2.67;;;;;;;;;;4821200;29;20566;-67
2022/05/23 09:00:53;;;;;;;6.93;3.28;;;;;;;;;;4820905;29;20543;-67
2022/05/23 09:03:49;;;;;;;7.85;2.58;;;;;;;;;;4838506;29;20062;-67
2022/05/23 09:06:30;;;;;;;7.00;3.40;;;;;;;;;;4838748;29;20062;-67
2022/05/23 09:09:09;;;;;;;5.43;2.70;;;;;;;;;;4839002;29;20058;-67
2022/05/23 09:11:43;;;;;;;8.48;3.08;;;;;;;;;;4839136;29;20058;-67
2022/05/23 09:14:16;;;;;;;5.95;3.00;;;;;;;;;;4835326;29;20054;-67
2022/05/23 09:16:51;;;;;;;6.13;3.15;;;;;;;;;;4838145;29;20107;-67
2022/05/23 09:19:46;;;;;;;6.25;2.92;;;;;;;;;;4824408;29;20062;-67
2022/05/23 09:22:35;;;;;;;6.80;3.33;;;;;;;;;;4857505;29;20066;-67
2022/05/23 09:25:07;;;;;;;6.75;2.90;;;;;;;;;;4857532;29;20069;-67
2022/05/23 09:28:05;;;;;;;5.90;3.22;;;;;;;;;;4868700;29;20054;-67
2022/05/23 09:30:38;;;;;;;6.03;3.30;;;;;;;;;;4875446;29;20421;-67
2022/05/23 09:33:13;;;;;;;;;;;;;;;;;;4914935;29;20081;-67
2022/05/23 09:35:43;;;;;;;6.70;2.97;;;;;;;;;;4951240;29;19923;-67
2022/05/23 09:38:26;;;;;;;8.38;2.92;;;;;;;;;;4967276;28;20047;-67
2022/05/23 09:41:04;;;;;;;5.90;3.00;;;;;;;;;;4941840;29;20059;-67
2022/05/23 09:49:26;;;;;;;6.72;3.08;;;;;;;;;;4932118;29;20055;-67
2022/05/23 09:52:12;;;;;;;8.88;3.22;;;;;;;;;;4942471;29;20055;-67
2022/05/23 09:54:52;;;;;;;8.98;4.43;;;;;;;;;;4967223;28;20043;-67
2022/05/23 09:57:27;;;;;;;11.32;3.47;;;;;;;;;;4970261;28;20058;-67
2022/05/23 09:59:59;;;;;;;11.88;3.63;;;;;;;;;;4922931;28;20050;-67
2022/05/23 10:02:31;;;;;;;8.15;4.07;;;;;;;;;;4970599;28;20069;-67
2022/05/23 10:05:03;;;;;;;6.78;3.72;;;;;;;;;;4970394;28;20411;-67
2022/05/23 10:07:36;;;;;;;9.57;3.67;;;;;;;;;;4970422;28;20466;-67
2022/05/23 10:10:24;;;;;;;9.20;4.30;;;;;;;;;;4970693;28;20087;-67
2022/05/23 10:13:26;;;;;;;10.35;3.85;;;;;;;;;;5003879;28;20061;-67
2022/05/23 10:16:10;;;;;;;7.70;3.85;;;;;;;;;;5013149;28;20072;-67
2022/05/23 10:18:51;;;;;;;8.27;3.53;;;;;;;;;;4980716;28;20061;-67
2022/05/23 10:21:39;;;;;;;6.93;3.40;;;;;;;;;;4957550;28;20073;-67
2022/05/23 10:24:10;;;;;;;6.90;3.30;;;;;;;;;;4996211;28;20062;-67
2022/05/23 10:26:52;;;;;;;7.45;3.22;;;;;;;;;;4980350;28;20061;-67
2022/05/23 10:29:58;;;;;;;6.65;3.50;;;;;;;;;;5013103;28;20065;-67
2022/05/23 10:32:37;;;;;;;7.95;3.13;;;;;;;;;;5013290;28;20074;-67
2022/05/23 10:35:30;;;;;;;7.20;3.33;;;;;;;;;;4984705;28;20524;-67
2022/05/23 10:44:15;;;;;;;9.23;4.57;;;;;;;;;;4907365;29;20055;-67
2022/05/23 10:46:53;;;;;;;9.57;4.53;;;;;;;;;;4954285;29;20415;-67
2022/05/23 10:50:18;;;;;;;11.73;7.10;;;;;;;;;;4954395;29;20087;-67
2022/05/23 10:52:48;;;;;;;;;;;;;;;;;;4860137;29;20418;-67
2022/05/23 10:55:37;;;;;;;8.40;3.85;;;;;;;;;;4859909;29;19924;-66
2022/05/23 10:58:37;;;;;;;9.45;3.85;;;;;;;;;;4862459;29;20053;-67
2022/05/23 11:01:32;;;;;;;10.95;4.70;;;;;;;;;;4841207;29;20049;-67
2022/05/23 11:04:21;;;;;;;13.40;5.60;;;;;;;;;;4841408;29;20057;-67
2022/05/23 11:07:02;;;;;;;15.93;8.07;;;;;;;;;;4841332;29;20058;-66
2022/05/23 11:09:56;;;;;;;14.98;7.57;;;;;;;;;;4841108;29;20062;-66
2022/05/23 11:12:48;;;;;;;16.58;7.50;;;;;;;;;;4826039;29;20058;-68
2022/05/23 11:15:37;;;;;;;12.45;6.20;;;;;;;;;;4860307;29;20065;-67
2022/05/23 11:18:10;;;;;;;15.32;7.03;;;;;;;;;;4878217;29;20417;-67
2022/05/23 11:20:41;;;;;;;17.17;8.23;;;;;;;;;;4878196;29;20101;-68
2022/05/23 11:23:42;;;;;;;12.20;6.28;;;;;;;;;;4893080;29;20072;-68
2022/05/23 11:26:21;;;;;;;18.58;7.00;;;;;;;;;;4877620;29;20061;-66
2022/05/23 11:35:10;;;;;;;13.82;5.88;;;;;;;;;;4977395;28;20062;-66
2022/05/23 11:37:43;;;;;;;13.35;5.60;;;;;;;;;;4991944;28;20058;-68
2022/05/23 11:40:38;;;;;;;11.93;5.60;;;;;;;;;;4976026;28;20499;-68
2022/05/23 11:43:15;;;;;;;15.93;5.78;;;;;;;;;;4959697;28;20097;-68
2022/05/23 11:45:59;;;;;;;11.32;6.68;;;;;;;;;;5003084;28;20413;-68
2022/05/23 11:48:34;;;;;;;12.57;5.28;;;;;;;;;;5031456;28;20092;-68
2022/05/23 11:51:14;;;;;;;11.18;5.85;;;;;;;;;;4991704;28;20051;-66
2022/05/23 11:53:58;;;;;;;15.98;6.20;;;;;;;;;;4991926;28;20617;-67
2022/05/23 11:56:44;;;;;;;11.93;6.28;;;;;;;;;;4991940;28;20410;-66
2022/05/23 11:59:26;;;;;;;11.98;6.45;;;;;;;;;;4972044;28;20080;-66
2022/05/23 12:02:12;;;;;;;9.75;5.20;;;;;;;;;;4958502;28;20058;-66
2022/05/23 12:04:54;;;;;;;11.40;5.18;;;;;;;;;;4991612;28;20542;-66
2022/05/23 12:07:37;;;;;;;11.85;6.25;;;;;;;;;;4944151;28;20054;-66
2022/05/23 12:10:24;;;;;;;12.20;7.18;;;;;;;;;;4991779;28;20062;-66
2022/05/23 12:13:24;;;;;;;14.63;6.43;;;;;;;;;;4991541;28;20542;-66
2022/05/23 12:16:26;;;;;;;12.48;6.60;;;;;;;;;;5006237;28;20098;-66
2022/05/23 12:19:12;;;;;;;12.18;6.00;;;;;;;;;;4978534;28;20505;-66
2022/05/23 12:21:45;;;;;;;12.02;5.47;;;;;;;;;;4991255;28;20065;-66
2022/05/23 12:24:28;;;;;;;16.45;6.85;;;;;;;;;;4975524;28;20062;-66
2022/05/23 12:27:39;;;;;;;14.20;7.97;;;;;;;;;;4971720;28;20065;-67
2022/05/23 12:30:39;;;;;;;12.57;6.80;;;;;;;;;;4991410;28;20065;-66
2022/05/23 12:33:29;;;;;;;14.52;7.30;;;;;;;;;;4933124;29;20056;-66
2022/05/23 12:36:10;;;;;;;13.57;7.30;;;;;;;;;;4935725;28;20043;-66
2022/05/23 12:38:58;;;;;;;15.82;9.45;;;;;;;;;;4951952;29;20103;-66
2022/05/23 12:41:55;;;;;;;16.13;9.00;;;;;;;;;;4952269;29;20059;-67
2022/05/23 12:44:49;;;;;;;13.55;6.85;;;;;;;;;;4952389;29;20058;-68
2022/05/23 12:47:47;;;;;;;13.25;6.47;;;;;;;;;;4952322;29;20057;-66
2022/05/23 12:50:18;;;;;;;13.98;6.53;;;;;;;;;;4952406;29;20059;-66
2022/05/23 12:53:07;;;;;;;17.63;8.50;;;;;;;;;;4952012;29;20047;-66
2022/05/23 12:56:16;;;;;;;12.80;5.30;;;;;;;;;;4952414;29;20062;-66
2022/05/23 12:59:39;;;;;;;9.15;4.80;;;;;;;;;;4998152;28;20445;-66
2022/05/23 13:02:32;;;;;;;11.25;4.75;;;;;;;;;;5010509;28;20157;-67
2022/05/23 13:05:17;;;;;;;9.95;5.13;;;;;;;;;;5010270;28;20061;-67
2022/05/23 13:08:26;;;;;;;8.60;4.07;;;;;;;;;;4978148;28;20054;-69
2022/05/23 13:11:06;;;;;;;9.90;4.65;;;;;;;;;;5006327;28;20529;-66
2022/05/23 13:13:40;;;;;;;12.48;5.38;;;;;;;;;;4974502;28;20392;-66
2022/05/23 13:16:58;;;;;;;10.48;5.45;;;;;;;;;;4990468;28;20414;-66
2022/05/23 13:22:24;;;;;;;10.18;5.60;;;;;;;;;;4913635;29;20055;-66
2022/05/23 13:24:59;;;;;;;8.13;3.00;;;;;;;;;;4913462;29;20052;-66
2022/05/23 13:27:48;;;;;;;7.10;3.10;;;;;;;;;;4882234;29;20441;-66
2022/05/23 13:30:41;;;;;;;11.65;2.92;;;;;;;;;;4913545;29;20056;-66
2022/05/23 13:33:19;;;;;;;6.43;2.88;;;;;;;;;;4913315;29;20052;-66
2022/05/23 13:36:03;;;;;;;7.35;3.55;;;;;;;;;;4913143;29;20063;-66
2022/05/23 13:38:43;;;;;;;7.40;3.53;;;;;;;;;;4898141;29;20060;-66
2022/05/23 13:41:27;;;;;;;6.57;3.88;;;;;;;;;;4884718;29;20052;-66
2022/05/23 13:43:58;;;;;;;10.07;4.40;;;;;;;;;;4932483;29;20063;-65
2022/05/23 13:46:37;;;;;;;12.32;6.10;;;;;;;;;;4916639;29;20475;-65
2022/05/23 13:49:19;;;;;;;13.00;5.90;;;;;;;;;;4950909;28;20048;-65
2022/05/23 13:51:52;;;;;;;18.13;6.38;;;;;;;;;;4965533;28;20058;-65
2022/05/23 13:54:30;;;;;;;15.75;5.80;;;;;;;;;;4980824;28;20389;-66
2022/05/23 13:57:18;;;;;;;12.93;6.47;;;;;;;;;;5052352;28;20045;-66
2022/05/23 13:59:53;;;;;;;13.55;5.57;;;;;;;;;;5069420;28;20048;-67
2022/05/23 14:02:31;;;;;;;14.18;5.90;;;;;;;;;;5036055;28;20055;-67
2022/05/23 14:05:04;;;;;;;15.35;6.03;;;;;;;;;;5069166;28;20059;-67
2022/05/23 14:07:40;;;;;;;12.55;5.22;;;;;;;;;;5069293;28;20060;-67
2022/05/23 14:10:17;;;;;;;15.13;5.57;;;;;;;;;;5052154;28;20040;-67
2022/05/23 14:12:50;;;;;;;9.40;4.40;;;;;;;;;;5036034;28;20052;-66
2022/05/23 14:15:24;;;;;;;;;;;;;;;;;;5069555;28;20052;-66
2022/05/23 14:17:55;;;;;;;11.90;4.72;;;;;;;;;;5035793;28;19928;-66
2022/05/23 14:20:35;;;;;;;11.10;4.25;;;;;;;;;;5048781;28;20056;-66
2022/05/23 14:23:11;;;;;;;14.48;7.38;;;;;;;;;;5033001;28;20052;-66
2022/05/23 14:26:04;;;;;;;11.95;4.85;;;;;;;;;;5015696;28;20064;-67
2022/05/23 14:28:43;;;;;;;8.20;2.88;;;;;;;;;;5033255;28;20057;-66
2022/05/23 14:31:33;;;;;;;4.82;2.50;;;;;;;;;;5049074;28;20041;-66
2022/05/23 14:34:08;;;;;;;6.35;2.85;;;;;;;;;;4999530;28;20053;-66
2022/05/23 14:36:40;;;;;;;4.43;1.85;;;;;;;;;;5012786;28;20053;-66
2022/05/23 14:39:30;;;;;;;5.20;1.85;;;;;;;;;;5029117;28;20065;-66
2022/05/23 14:42:23;;;;;;;6.68;2.20;;;;;;;;;;5028946;28;20061;-66
2022/05/23 14:45:24;;;;;;;6.18;2.70;;;;;;;;;;4976769;28;20454;-66
2022/05/23 14:47:58;;;;;;;5.57;2.13;;;;;;;;;;5009265;28;20058;-66
2022/05/23 14:50:33;;;;;;;7.75;2.42;;;;;;;;;;5009097;28;20050;-67
2022/05/23 14:55:57;;;;;;;4.88;2.20;;;;;;;;;;5008762;28;20053;-67
2022/05/23 15:01:24;;;;;;;6.72;2.22;;;;;;;;;;4953206;28;20064;-66
2022/05/23 15:03:56;;;;;;;3.75;2.28;;;;;;;;;;4963949;28;20050;-66
2022/05/23 15:06:27;;;;;;;7.05;2.53;;;;;;;;;;4996717;28;20053;-66
2022/05/23 15:09:00;;;;;;;6.28;2.30;;;;;;;;;;4963954;28;20114;-64
2022/05/23 15:11:35;;;;;;;4.63;2.17;;;;;;;;;;4932686;28;20077;-65
2022/05/23 15:14:10;;;;;;;5.32;2.17;;;;;;;;;;5004070;28;20065;-65
2022/05/23 15:16:42;;;;;;;6.28;2.50;;;;;;;;;;4999286;28;20050;-64
2022/05/23 15:19:16;;;;;;;;;;;;;;;;;;5032460;28;20055;-65
2022/05/23 15:21:48;;;;;;;4.25;2.20;;;;;;;;;;5039613;28;19920;-65
2022/05/23 15:24:19;;;;;;;4.43;2.20;;;;;;;;;;5031179;28;20054;-65
2022/05/23 15:26:51;;;;;;;5.82;2.50;;;;;;;;;;5031929;28;20580;-65
2022/05/23 15:29:23;;;;;;;4.40;1.92;;;;;;;;;;4992095;28;20402;-64
2022/05/23 15:31:55;;;;;;;5.55;2.45;;;;;;;;;;4989891;28;20054;-65
2022/05/23 15:34:27;;;;;;;4.13;2.17;;;;;;;;;;4976882;28;20085;-65
2022/05/23 15:36:58;;;;;;;8.35;2.80;;;;;;;;;;5011684;28;20158;-65
2022/05/23 15:39:28;;;;;;;5.40;2.28;;;;;;;;;;5011838;28;20545;-65
2022/05/23 15:42:01;;;;;;;10.90;2.35;;;;;;;;;;4979172;28;20050;-64
2022/05/23 15:44:38;;;;;;;7.75;2.35;;;;;;;;;;4979129;28;20450;-65
2022/05/23 15:47:11;;;;;;;7.25;2.45;;;;;;;;;;4991857;28;20057;-65
2022/05/23 15:49:42;;;;;;;4.85;2.53;;;;;;;;;;4992027;28;20054;-65
2022/05/23 15:52:12;;;;;;;6.82;3.10;;;;;;;;;;4992270;28;20192;-65
2022/05/23 15:54:45;;;;;;;6.28;2.63;;;;;;;;;;4976430;28;20433;-65
2022/05/23 15:57:28;;;;;;;6.47;2.20;;;;;;;;;;4959376;28;20054;-66
2022/05/23 16:00:07;;;;;;;6.07;2.72;;;;;;;;;;4943622;28;20062;-65
2022/05/23 16:02:41;;;;;;;6.45;2.40;;;;;;;;;;4961058;28;20047;-65
2022/05/23 16:05:13;;;;;;;4.63;2.30;;;;;;;;;;4972291;28;20061;-65
2022/05/23 16:07:44;;;;;;;6.20;2.45;;;;;;;;;;4921064;28;20095;-65
2022/05/23 16:10:16;;;;;;;6.47;2.30;;;;;;;;;;4952943;28;20059;-65
2022/05/23 16:13:06;;;;;;;8.10;2.20;;;;;;;;;;4957169;28;20062;-65
2022/05/23 16:15:44;;;;;;;4.65;2.17;;;;;;;;;;4972308;28;20062;-65
2022/05/23 16:18:15;;;;;;;7.57;2.00;;;;;;;;;;4987632;28;20169;-65
2022/05/23 16:20:46;;;;;;;4.90;2.30;;;;;;;;;;4952622;28;20051;-64
2022/05/23 16:23:17;;;;;;;5.22;2.10;;;;;;;;;;4920922;29;20061;-65
2022/05/23 16:25:48;;;;;;;5.57;2.22;;;;;;;;;;4952760;28;20627;-65
2022/05/23 16:28:18;;;;;;;7.32;2.50;;;;;;;;;;4952635;28;20062;-65
2022/05/23 16:30:49;;;;;;;3.78;1.73;;;;;;;;;;4951708;28;20427;-64
2022/05/23 16:39:09;;;;;;;3.40;1.45;;;;;;;;;;4971558;28;20058;-64
2022/05/23 16:41:42;;;;;;;4.40;1.85;;;;;;;;;;4939068;28;20410;-64
2022/05/23 16:44:15;;;;;;;3.78;1.90;;;;;;;;;;4939889;28;20508;-63
2022/05/23 16:46:47;;;;;;;7.20;2.50;;;;;;;;;;4963771;28;20554;-64
2022/05/23 16:49:18;;;;;;;4.93;2.03;;;;;;;;;;4955955;28;20074;-63
2022/05/23 16:51:49;;;;;;;3.50;1.90;;;;;;;;;;4971342;28;20066;-64
2022/05/23 16:54:19;;;;;;;6.80;2.00;;;;;;;;;;5003212;28;20051;-64
2022/05/23 16:56:50;;;;;;;4.32;1.95;;;;;;;;;;4971547;28;20042;-63
2022/05/23 16:59:21;;;;;;;3.85;1.60;;;;;;;;;;4988398;28;20073;-63
2022/05/23 17:01:51;;;;;;;4.70;1.90;;;;;;;;;;4990697;28;20062;-64